Bethlehem, South Dakota
Current Conditions -  °F | °C
As of 7:15 PM on Friday 28 Nov 2014 (Local Time) from KSPF Reporting Station
Few Clouds Few Clouds  
Wind Chill: 55°   Ceiling: Unl
Heat Index: 55°   Visibility: 10mi
Dew Point: 23°   Wind: 21mph
Humidity: 28%   Direction: 230°SW
Pressure: 29.53"   Gusts: 32mph
Location:  44.3°N, 103.48°W
Report Text: KSPF 290215Z AUTO 23018G28KT 10SM FEW120 13/M05 A2953 RMK AO2
Loading
Personal Weather Stations






























Interactive Weather Map New forecast layout! Learn more

10-Day Weather Forecast

Advertisements
Track Severe Weather on mobile